AFL5011 EDDH-ULLI
Flight info
| Callsign | AFL5011 |
|---|---|
| Flight time | N/A |
| Altitude | 37000 |
| Route | LUGEG3C/05 LUGEG P605 MALIV M611 EVONA P862 NETNA MONUS T653 OBANA OBANA1A |
| Aircraft | A359/H-SDE2E3GHIJ3J4J5LM1ORWXY/LB1D1 |
Departure
| Time | 2026-05-07 11:51 |
|---|---|
| Airport | Hamburg Helmut Schmidt Airport (EDDH) |
Arrival
| Time | N/A |
|---|---|
| Airport | Pulkovo Airport (ULLI) |
| Time | Latitude | Longitude | Altitude | Speed | Heading |
|---|---|---|---|---|---|
| 2026-05-07 11:12 | 53.62946 | 10.00285 | 46 ft | 0 kts | 122° |
| 2026-05-07 11:37 | 53.62952 | 10.00269 | 43 ft | 4 kts | 122° |
| 2026-05-07 11:37 | 53.62967 | 10.00231 | 44 ft | 4 kts | 124° |
| 2026-05-07 11:37 | 53.62982 | 10.00193 | 42 ft | 4 kts | 122° |
| 2026-05-07 11:37 | 53.62996 | 10.00156 | 42 ft | 4 kts | 145° |
| 2026-05-07 11:38 | 53.62998 | 10.00148 | 40 ft | 2 kts | 211° |
| 2026-05-07 11:38 | 53.63021 | 10.00169 | 42 ft | 4 kts | 212° |
| 2026-05-07 11:38 | 53.63026 | 10.00174 | 42 ft | 0 kts | 213° |
| 2026-05-07 11:41 | 53.63015 | 10.00163 | 44 ft | 5 kts | 213° |
| 2026-05-07 11:41 | 53.62971 | 10.00115 | 45 ft | 8 kts | 213° |
| 2026-05-07 11:41 | 53.62924 | 10.00064 | 45 ft | 8 kts | 210° |
| 2026-05-07 11:41 | 53.62879 | 10.00035 | 46 ft | 6 kts | 202° |
| 2026-05-07 11:42 | 53.62853 | 10.00010 | 42 ft | 3 kts | 211° |
| 2026-05-07 11:42 | 53.62846 | 10.00004 | 44 ft | 0 kts | 211° |
| 2026-05-07 11:43 | 53.62826 | 9.99982 | 47 ft | 8 kts | 212° |
| 2026-05-07 11:43 | 53.62756 | 9.99915 | 48 ft | 15 kts | 208° |
| 2026-05-07 11:44 | 53.62661 | 9.99818 | 48 ft | 15 kts | 224° |
| 2026-05-07 11:44 | 53.62628 | 9.99659 | 46 ft | 14 kts | 259° |
| 2026-05-07 11:44 | 53.62612 | 9.99509 | 45 ft | 12 kts | 258° |
| 2026-05-07 11:44 | 53.62597 | 9.99383 | 45 ft | 10 kts | 260° |
| 2026-05-07 11:45 | 53.62584 | 9.99268 | 45 ft | 12 kts | 259° |
| 2026-05-07 11:45 | 53.62564 | 9.99102 | 42 ft | 16 kts | 259° |
| 2026-05-07 11:45 | 53.62545 | 9.98930 | 43 ft | 14 kts | 259° |
| 2026-05-07 11:45 | 53.62529 | 9.98782 | 43 ft | 10 kts | 259° |
| 2026-05-07 11:46 | 53.62516 | 9.98673 | 43 ft | 9 kts | 259° |
| 2026-05-07 11:46 | 53.62506 | 9.98579 | 41 ft | 8 kts | 259° |
| 2026-05-07 11:46 | 53.62492 | 9.98463 | 42 ft | 12 kts | 259° |
| 2026-05-07 11:46 | 53.62477 | 9.98335 | 42 ft | 10 kts | 259° |
| 2026-05-07 11:47 | 53.62453 | 9.98185 | 41 ft | 17 kts | 249° |
| 2026-05-07 11:47 | 53.62378 | 9.97988 | 41 ft | 21 kts | 231° |
| 2026-05-07 11:47 | 53.62289 | 9.97803 | 40 ft | 19 kts | 231° |
| 2026-05-07 11:47 | 53.62208 | 9.97640 | 40 ft | 17 kts | 231° |
| 2026-05-07 11:48 | 53.62185 | 9.97485 | 40 ft | 9 kts | 282° |
| 2026-05-07 11:48 | 53.62202 | 9.97427 | 40 ft | 0 kts | 310° |
| 2026-05-07 11:48 | 53.62207 | 9.97418 | 40 ft | 5 kts | 314° |
| 2026-05-07 11:49 | 53.62266 | 9.97370 | 40 ft | 13 kts | 352° |
| 2026-05-07 11:49 | 53.62339 | 9.97417 | 41 ft | 0 kts | 45° |
| 2026-05-07 11:49 | 53.62340 | 9.97419 | 42 ft | 0 kts | 45° |
| 2026-05-07 11:50 | 53.62342 | 9.97422 | 42 ft | 3 kts | 46° |
| 2026-05-07 11:50 | 53.62489 | 9.97717 | 41 ft | 68 kts | 51° |
| 2026-05-07 11:50 | 53.62925 | 9.98603 | 42 ft | 126 kts | 50° |
| 2026-05-07 11:51 | 53.63586 | 9.99940 | 103 ft | 165 kts | 51° |
| 2026-05-07 11:51 | 53.64309 | 10.01473 | 688 ft | 170 kts | 53° |
| 2026-05-07 11:51 | 53.65053 | 10.03084 | 1125 ft | 181 kts | 53° |
| 2026-05-07 11:51 | 53.65876 | 10.04936 | 1084 ft | 213 kts | 55° |
| 2026-05-07 11:52 | 53.66760 | 10.07011 | 1913 ft | 218 kts | 54° |
| 2026-05-07 11:52 | 53.67350 | 10.08330 | 2739 ft | 209 kts | 53° |
| 2026-05-07 11:52 | 53.68269 | 10.10226 | 3516 ft | 209 kts | 52° |
| 2026-05-07 11:52 | 53.69220 | 10.12137 | 3894 ft | 222 kts | 51° |
| 2026-05-07 11:53 | 53.70259 | 10.14234 | 4052 ft | 243 kts | 52° |
| 2026-05-07 11:53 | 53.71353 | 10.16472 | 4566 ft | 250 kts | 53° |
| 2026-05-07 11:53 | 53.72453 | 10.18789 | 4958 ft | 254 kts | 53° |
| 2026-05-07 11:53 | 53.73536 | 10.21132 | 5351 ft | 254 kts | 54° |
| 2026-05-07 11:54 | 53.74617 | 10.23504 | 6003 ft | 255 kts | 54° |
| 2026-05-07 11:54 | 53.75703 | 10.25899 | 6605 ft | 258 kts | 54° |
| 2026-05-07 11:54 | 53.76798 | 10.28317 | 7166 ft | 261 kts | 53° |
| 2026-05-07 11:54 | 53.77903 | 10.30766 | 7733 ft | 263 kts | 54° |
| 2026-05-07 11:55 | 53.79021 | 10.33248 | 8268 ft | 268 kts | 53° |
| 2026-05-07 11:55 | 53.80161 | 10.35770 | 8779 ft | 272 kts | 53° |
| 2026-05-07 11:55 | 53.81318 | 10.38329 | 9302 ft | 276 kts | 52° |
| 2026-05-07 11:55 | 53.82498 | 10.40941 | 9774 ft | 282 kts | 52° |
| 2026-05-07 11:56 | 53.83696 | 10.43593 | 10239 ft | 285 kts | 52° |
| 2026-05-07 11:56 | 53.84903 | 10.46279 | 10712 ft | 288 kts | 52° |
| 2026-05-07 11:56 | 53.86123 | 10.48997 | 11183 ft | 291 kts | 52° |
| 2026-05-07 11:56 | 53.87352 | 10.51742 | 11647 ft | 294 kts | 52° |
| 2026-05-07 11:57 | 53.88594 | 10.54511 | 12141 ft | 297 kts | 52° |
| 2026-05-07 11:57 | 53.89878 | 10.57376 | 12281 ft | 312 kts | 52° |
| 2026-05-07 11:57 | 53.91219 | 10.60378 | 12419 ft | 327 kts | 52° |
| 2026-05-07 11:57 | 53.92620 | 10.63520 | 12555 ft | 340 kts | 52° |
| 2026-05-07 11:58 | 53.94092 | 10.66770 | 12687 ft | 354 kts | 49° |
| 2026-05-07 11:58 | 53.95763 | 10.69850 | 12855 ft | 364 kts | 46° |
| 2026-05-07 11:58 | 53.97532 | 10.73050 | 13240 ft | 369 kts | 46° |
| 2026-05-07 11:58 | 53.99274 | 10.76210 | 13664 ft | 372 kts | 46° |
| 2026-05-07 11:59 | 54.01051 | 10.79441 | 14070 ft | 375 kts | 46° |
| 2026-05-07 11:59 | 54.02839 | 10.82702 | 14421 ft | 379 kts | 46° |
| 2026-05-07 11:59 | 54.04643 | 10.85996 | 14770 ft | 382 kts | 46° |
| 2026-05-07 11:59 | 54.06461 | 10.89321 | 15147 ft | 385 kts | 46° |
| 2026-05-07 12:00 | 54.08288 | 10.92670 | 15498 ft | 388 kts | 46° |
| 2026-05-07 12:00 | 54.10127 | 10.96044 | 15868 ft | 390 kts | 46° |
| 2026-05-07 12:00 | 54.11979 | 10.99442 | 16198 ft | 393 kts | 46° |
| 2026-05-07 12:00 | 54.13845 | 11.02880 | 16554 ft | 395 kts | 46° |
| 2026-05-07 12:01 | 54.15709 | 11.06332 | 16888 ft | 398 kts | 46° |
| 2026-05-07 12:01 | 54.17588 | 11.09830 | 17209 ft | 400 kts | 47° |
| 2026-05-07 12:01 | 54.19470 | 11.13342 | 17536 ft | 402 kts | 46° |
| 2026-05-07 12:01 | 54.21370 | 11.16883 | 17824 ft | 405 kts | 47° |
| 2026-05-07 12:02 | 54.23275 | 11.20435 | 18153 ft | 407 kts | 46° |
| 2026-05-07 12:02 | 54.25187 | 11.24009 | 18421 ft | 409 kts | 46° |
| 2026-05-07 12:02 | 54.27110 | 11.27615 | 18693 ft | 411 kts | 46° |
| 2026-05-07 12:02 | 54.29038 | 11.31234 | 18934 ft | 413 kts | 47° |
| 2026-05-07 12:03 | 54.30951 | 11.34831 | 19200 ft | 414 kts | 47° |
| 2026-05-07 12:03 | 54.32920 | 11.38535 | 19456 ft | 416 kts | 47° |
| 2026-05-07 12:03 | 54.34871 | 11.42212 | 19715 ft | 418 kts | 47° |
| 2026-05-07 12:03 | 54.36801 | 11.45860 | 19971 ft | 420 kts | 47° |
| 2026-05-07 12:04 | 54.38764 | 11.49571 | 20226 ft | 421 kts | 47° |
| 2026-05-07 12:04 | 54.40739 | 11.53297 | 20501 ft | 423 kts | 47° |
| 2026-05-07 12:04 | 54.42727 | 11.57047 | 20767 ft | 425 kts | 47° |
| 2026-05-07 12:04 | 54.44719 | 11.60813 | 21041 ft | 427 kts | 47° |
| 2026-05-07 12:05 | 54.46718 | 11.64594 | 21330 ft | 428 kts | 47° |
| 2026-05-07 12:05 | 54.48720 | 11.68390 | 21625 ft | 430 kts | 47° |
| 2026-05-07 12:05 | 54.50732 | 11.72209 | 21908 ft | 432 kts | 47° |
| 2026-05-07 12:05 | 54.52751 | 11.76043 | 22166 ft | 434 kts | 47° |
| 2026-05-07 12:06 | 54.54781 | 11.79911 | 22434 ft | 436 kts | 47° |
| 2026-05-07 12:06 | 54.56814 | 11.83797 | 22711 ft | 438 kts | 47° |
| 2026-05-07 12:06 | 54.58854 | 11.87700 | 22985 ft | 440 kts | 47° |
| 2026-05-07 12:06 | 54.60909 | 11.91630 | 23232 ft | 442 kts | 47° |
| 2026-05-07 12:07 | 54.62969 | 11.95585 | 23414 ft | 445 kts | 48° |
| 2026-05-07 12:07 | 54.65028 | 11.99606 | 23646 ft | 448 kts | 48° |
| 2026-05-07 12:07 | 54.67077 | 12.03667 | 23875 ft | 449 kts | 49° |
| 2026-05-07 12:07 | 54.69123 | 12.07756 | 24098 ft | 451 kts | 49° |
| 2026-05-07 12:08 | 54.71170 | 12.11863 | 24339 ft | 452 kts | 49° |
| 2026-05-07 12:08 | 54.73228 | 12.15993 | 24570 ft | 453 kts | 49° |
| 2026-05-07 12:08 | 54.75288 | 12.20116 | 24795 ft | 454 kts | 49° |
| 2026-05-07 12:08 | 54.77353 | 12.24245 | 25017 ft | 455 kts | 48° |
| 2026-05-07 12:09 | 54.79429 | 12.28388 | 25240 ft | 456 kts | 48° |
| 2026-05-07 12:09 | 54.81511 | 12.32540 | 25461 ft | 457 kts | 48° |
| 2026-05-07 12:09 | 54.83597 | 12.36710 | 25686 ft | 458 kts | 48° |
| 2026-05-07 12:09 | 54.85683 | 12.40900 | 25906 ft | 459 kts | 49° |
| 2026-05-07 12:10 | 54.87767 | 12.45102 | 26131 ft | 460 kts | 49° |
| 2026-05-07 12:10 | 54.89856 | 12.49316 | 26389 ft | 460 kts | 49° |
| 2026-05-07 12:10 | 54.91939 | 12.53533 | 26646 ft | 460 kts | 49° |
| 2026-05-07 12:10 | 54.94020 | 12.57759 | 26871 ft | 461 kts | 49° |
| 2026-05-07 12:11 | 54.96076 | 12.61943 | 27072 ft | 461 kts | 49° |
| 2026-05-07 12:11 | 54.98165 | 12.66197 | 27242 ft | 463 kts | 49° |
| 2026-05-07 12:11 | 55.00265 | 12.70471 | 27367 ft | 466 kts | 49° |
| 2026-05-07 12:11 | 55.02373 | 12.74775 | 27509 ft | 468 kts | 49° |
| 2026-05-07 12:12 | 55.04452 | 12.79148 | 27658 ft | 470 kts | 50° |
| 2026-05-07 12:12 | 55.06529 | 12.83553 | 27820 ft | 471 kts | 50° |
| 2026-05-07 12:12 | 55.08626 | 12.87947 | 27984 ft | 471 kts | 49° |
| 2026-05-07 12:12 | 55.10742 | 12.92335 | 28151 ft | 472 kts | 49° |
| 2026-05-07 12:13 | 55.12866 | 12.96707 | 28318 ft | 472 kts | 49° |
| 2026-05-07 12:13 | 55.14956 | 13.01126 | 28461 ft | 473 kts | 53° |
| 2026-05-07 12:13 | 55.16731 | 13.05970 | 28598 ft | 474 kts | 62° |
| 2026-05-07 12:13 | 55.18105 | 13.11209 | 28745 ft | 474 kts | 67° |
| 2026-05-07 12:14 | 55.19377 | 13.16550 | 28875 ft | 475 kts | 67° |
| 2026-05-07 12:14 | 55.20649 | 13.21872 | 29022 ft | 475 kts | 67° |
| 2026-05-07 12:14 | 55.21922 | 13.27202 | 29181 ft | 474 kts | 67° |
| 2026-05-07 12:14 | 55.23191 | 13.32530 | 29340 ft | 474 kts | 67° |
| 2026-05-07 12:15 | 55.24459 | 13.37860 | 29478 ft | 474 kts | 67° |
| 2026-05-07 12:15 | 55.25726 | 13.43187 | 29615 ft | 474 kts | 67° |
| 2026-05-07 12:15 | 55.26994 | 13.48523 | 29758 ft | 474 kts | 67° |
| 2026-05-07 12:15 | 55.28260 | 13.53868 | 29904 ft | 474 kts | 67° |
| 2026-05-07 12:16 | 55.29522 | 13.59211 | 30052 ft | 474 kts | 67° |
| 2026-05-07 12:16 | 55.30779 | 13.64551 | 30192 ft | 474 kts | 68° |
| 2026-05-07 12:16 | 55.32033 | 13.69902 | 30316 ft | 473 kts | 68° |
| 2026-05-07 12:16 | 55.33283 | 13.75247 | 30444 ft | 473 kts | 68° |
| 2026-05-07 12:17 | 55.34534 | 13.80597 | 30561 ft | 473 kts | 68° |
| 2026-05-07 12:17 | 55.35780 | 13.85946 | 30684 ft | 473 kts | 68° |
| 2026-05-07 12:17 | 55.37018 | 13.91292 | 30815 ft | 473 kts | 68° |
| 2026-05-07 12:17 | 55.38253 | 13.96647 | 30942 ft | 472 kts | 68° |
| 2026-05-07 12:18 | 55.39485 | 14.02000 | 31059 ft | 472 kts | 68° |
| 2026-05-07 12:18 | 55.40700 | 14.07288 | 31177 ft | 472 kts | 68° |
| 2026-05-07 12:18 | 55.41929 | 14.12634 | 31309 ft | 472 kts | 68° |
| 2026-05-07 12:18 | 55.43163 | 14.17986 | 31440 ft | 472 kts | 68° |
| 2026-05-07 12:19 | 55.44396 | 14.23341 | 31557 ft | 471 kts | 68° |
| 2026-05-07 12:19 | 55.45623 | 14.28690 | 31699 ft | 471 kts | 68° |
| 2026-05-07 12:19 | 55.46849 | 14.34048 | 31824 ft | 471 kts | 68° |
| 2026-05-07 12:19 | 55.48068 | 14.39405 | 31954 ft | 471 kts | 68° |
| 2026-05-07 12:20 | 55.49282 | 14.44762 | 32088 ft | 471 kts | 68° |
| 2026-05-07 12:20 | 55.50491 | 14.50111 | 32217 ft | 470 kts | 68° |
| 2026-05-07 12:20 | 55.51702 | 14.55474 | 32348 ft | 470 kts | 68° |
| 2026-05-07 12:20 | 55.52912 | 14.60837 | 32481 ft | 470 kts | 68° |
| 2026-05-07 12:21 | 55.54120 | 14.66191 | 32607 ft | 470 kts | 69° |
| 2026-05-07 12:21 | 55.55325 | 14.71547 | 32745 ft | 469 kts | 69° |
| 2026-05-07 12:21 | 55.56527 | 14.76909 | 32878 ft | 469 kts | 69° |
| 2026-05-07 12:21 | 55.57721 | 14.82265 | 33009 ft | 469 kts | 69° |
| 2026-05-07 12:22 | 55.58914 | 14.87640 | 33161 ft | 469 kts | 69° |
| 2026-05-07 12:22 | 55.60099 | 14.92992 | 33279 ft | 468 kts | 69° |
| 2026-05-07 12:22 | 55.61285 | 14.98355 | 33407 ft | 468 kts | 69° |
| 2026-05-07 12:22 | 55.62470 | 15.03716 | 33555 ft | 467 kts | 69° |
| 2026-05-07 12:23 | 55.63653 | 15.09078 | 33693 ft | 467 kts | 69° |
| 2026-05-07 12:23 | 55.64825 | 15.14426 | 33831 ft | 466 kts | 69° |
| 2026-05-07 12:23 | 55.65995 | 15.19776 | 33986 ft | 466 kts | 69° |
| 2026-05-07 12:23 | 55.67164 | 15.25133 | 34106 ft | 465 kts | 69° |
| 2026-05-07 12:24 | 55.68327 | 15.30477 | 34220 ft | 465 kts | 69° |
| 2026-05-07 12:24 | 55.69489 | 15.35819 | 34334 ft | 464 kts | 70° |
| 2026-05-07 12:24 | 55.70648 | 15.41158 | 34453 ft | 464 kts | 70° |
| 2026-05-07 12:24 | 55.71805 | 15.46496 | 34568 ft | 463 kts | 70° |
| 2026-05-07 12:25 | 55.72958 | 15.51837 | 34686 ft | 463 kts | 70° |
| 2026-05-07 12:25 | 55.74102 | 15.57161 | 34802 ft | 462 kts | 70° |
| 2026-05-07 12:25 | 55.75243 | 15.62490 | 34920 ft | 461 kts | 70° |
| 2026-05-07 12:25 | 55.76364 | 15.67736 | 35038 ft | 460 kts | 70° |
| 2026-05-07 12:26 | 55.77497 | 15.73048 | 35160 ft | 459 kts | 70° |
| 2026-05-07 12:26 | 55.78623 | 15.78344 | 35291 ft | 458 kts | 70° |
| 2026-05-07 12:26 | 55.79749 | 15.83637 | 35400 ft | 457 kts | 70° |
| 2026-05-07 12:26 | 55.80869 | 15.88904 | 35524 ft | 455 kts | 70° |
| 2026-05-07 12:27 | 55.81985 | 15.94169 | 35662 ft | 454 kts | 70° |
| 2026-05-07 12:27 | 55.84190 | 16.04633 | 35878 ft | 450 kts | 71° |
| 2026-05-07 12:27 | 55.85279 | 16.09836 | 36002 ft | 447 kts | 71° |
| 2026-05-07 12:28 | 55.86359 | 16.15009 | 36126 ft | 445 kts | 71° |
| 2026-05-07 12:28 | 55.88523 | 16.25416 | 35624 ft | 461 kts | 71° |
| 2026-05-07 12:29 | 55.90751 | 16.36134 | 35735 ft | 460 kts | 71° |
| 2026-05-07 12:29 | 55.91856 | 16.41478 | 35854 ft | 458 kts | 71° |
| 2026-05-07 12:29 | 55.92949 | 16.46792 | 35982 ft | 456 kts | 71° |
| 2026-05-07 12:29 | 55.94037 | 16.52099 | 36096 ft | 454 kts | 71° |
| 2026-05-07 12:30 | 55.95115 | 16.57374 | 36221 ft | 452 kts | 71° |
| 2026-05-07 12:30 | 55.96182 | 16.62627 | 36338 ft | 450 kts | 71° |
| 2026-05-07 12:30 | 55.97262 | 16.67960 | 35552 ft | 464 kts | 71° |
| 2026-05-07 12:30 | 55.98369 | 16.73442 | 35230 ft | 474 kts | 71° |
| 2026-05-07 12:31 | 55.99562 | 16.78971 | 35050 ft | 480 kts | 65° |
| 2026-05-07 12:31 | 56.03054 | 16.89121 | 35093 ft | 481 kts | 54° |
| 2026-05-07 12:32 | 56.06945 | 16.98915 | 35093 ft | 484 kts | 54° |
| 2026-05-07 12:32 | 56.10815 | 17.08718 | 35090 ft | 486 kts | 54° |
| 2026-05-07 12:33 | 56.16685 | 17.23625 | 35094 ft | 486 kts | 54° |
| 2026-05-07 12:33 | 56.20544 | 17.33484 | 35096 ft | 486 kts | 54° |
| 2026-05-07 12:34 | 56.24422 | 17.43442 | 35090 ft | 487 kts | 54° |
| 2026-05-07 12:34 | 56.28317 | 17.53485 | 35097 ft | 491 kts | 55° |
| 2026-05-07 12:35 | 56.32219 | 17.63574 | 35093 ft | 491 kts | 55° |
| 2026-05-07 12:35 | 56.36116 | 17.73690 | 35099 ft | 491 kts | 55° |
| 2026-05-07 12:36 | 56.40013 | 17.83824 | 35090 ft | 491 kts | 54° |
| 2026-05-07 12:36 | 56.43889 | 17.93967 | 35092 ft | 491 kts | 55° |
| 2026-05-07 12:37 | 56.47753 | 18.04144 | 35092 ft | 491 kts | 55° |
| 2026-05-07 12:37 | 56.51613 | 18.14341 | 35092 ft | 491 kts | 55° |
| 2026-05-07 12:38 | 56.55463 | 18.24551 | 35067 ft | 491 kts | 55° |
| 2026-05-07 12:38 | 56.59316 | 18.34817 | 35095 ft | 494 kts | 55° |
| 2026-05-07 12:39 | 56.63185 | 18.45167 | 35084 ft | 496 kts | 55° |
| 2026-05-07 12:39 | 56.67055 | 18.55544 | 35084 ft | 496 kts | 55° |
| 2026-05-07 12:40 | 56.70917 | 18.65935 | 35081 ft | 496 kts | 56° |
| 2026-05-07 12:40 | 56.74734 | 18.76282 | 35084 ft | 496 kts | 56° |
| 2026-05-07 12:41 | 56.78594 | 18.86799 | 35092 ft | 496 kts | 56° |
| 2026-05-07 12:41 | 56.82398 | 18.97198 | 35083 ft | 496 kts | 56° |
| 2026-05-07 12:42 | 56.86215 | 19.07682 | 35054 ft | 496 kts | 56° |
| 2026-05-07 12:42 | 56.90030 | 19.18204 | 35084 ft | 498 kts | 56° |
| 2026-05-07 12:43 | 56.93863 | 19.28817 | 35087 ft | 500 kts | 56° |
| 2026-05-07 12:43 | 56.97077 | 19.37736 | 35109 ft | 501 kts | 56° |
| 2026-05-07 12:44 | 57.00878 | 19.48340 | 35080 ft | 501 kts | 56° |
| 2026-05-07 12:44 | 57.04684 | 19.59043 | 35079 ft | 501 kts | 56° |
| 2026-05-07 12:45 | 57.08492 | 19.69765 | 35081 ft | 501 kts | 56° |
| 2026-05-07 12:45 | 57.12294 | 19.80495 | 35080 ft | 501 kts | 56° |
| 2026-05-07 12:46 | 57.16071 | 19.91268 | 35077 ft | 501 kts | 59° |
| 2026-05-07 12:46 | 57.19214 | 20.02719 | 35136 ft | 501 kts | 65° |
| 2026-05-07 12:47 | 57.20727 | 20.08484 | 35260 ft | 499 kts | 65° |
| 2026-05-07 12:47 | 57.22242 | 20.14254 | 35378 ft | 498 kts | 65° |
| 2026-05-07 12:47 | 57.23746 | 20.19999 | 35490 ft | 496 kts | 65° |
| 2026-05-07 12:47 | 57.25243 | 20.25725 | 35625 ft | 495 kts | 65° |
| 2026-05-07 12:48 | 57.26737 | 20.31452 | 35743 ft | 494 kts | 65° |
| 2026-05-07 12:48 | 57.28222 | 20.37156 | 35852 ft | 492 kts | 65° |
| 2026-05-07 12:48 | 57.29702 | 20.42853 | 35990 ft | 491 kts | 65° |
| 2026-05-07 12:48 | 57.31172 | 20.48532 | 36106 ft | 489 kts | 65° |
| 2026-05-07 12:49 | 57.32615 | 20.54127 | 36229 ft | 487 kts | 65° |
| 2026-05-07 12:49 | 57.34068 | 20.59778 | 36379 ft | 486 kts | 65° |
| 2026-05-07 12:49 | 57.35514 | 20.65422 | 36500 ft | 484 kts | 65° |
| 2026-05-07 12:49 | 57.36949 | 20.71033 | 36626 ft | 482 kts | 65° |
| 2026-05-07 12:50 | 57.39797 | 20.82205 | 36847 ft | 477 kts | 65° |
| 2026-05-07 12:50 | 57.41209 | 20.87755 | 37013 ft | 473 kts | 65° |
| 2026-05-07 12:50 | 57.42606 | 20.93272 | 37072 ft | 472 kts | 65° |
| 2026-05-07 12:51 | 57.45389 | 21.04324 | 37063 ft | 473 kts | 65° |
| 2026-05-07 12:51 | 57.48173 | 21.15407 | 37061 ft | 474 kts | 65° |
| 2026-05-07 12:52 | 57.50959 | 21.26518 | 37063 ft | 474 kts | 65° |
| 2026-05-07 12:52 | 57.53731 | 21.37669 | 37062 ft | 475 kts | 65° |
| 2026-05-07 12:53 | 57.56488 | 21.48876 | 37060 ft | 476 kts | 65° |
| 2026-05-07 12:53 | 57.59252 | 21.60097 | 37063 ft | 476 kts | 66° |
| 2026-05-07 12:54 | 57.62012 | 21.71333 | 37068 ft | 477 kts | 66° |
| 2026-05-07 12:54 | 57.64334 | 21.80843 | 37057 ft | 478 kts | 66° |